Flight Track Log - Related Links

Times and Time Zones

All times are in EDT time to prevent confusion due to time zone crossing. See the LXJ537 flight status page for this flight to view local times or setup timezone preferences in your user account.

Time Position Orientation Groundspeed Altitude Reporting Facility
EDT Latitude Longitude Course Direction KTS MPH feet Rate Location/Type
Fri 03:23:23 PM 37.6500 -122.3333 47° Northeast 226 260 2,700  Level Northern Cal TRACON
Fri 03:24:17 PM 37.7000 -122.2667 47° Northeast 240 276 6,800 4,240 Climbing Northern Cal TRACON
Fri 03:24:38 PM 37.7183 -122.2444 44° Northeast 255 293 8,000 3,181 Climbing Oakland Center
Fri 03:25:40 PM 37.7558 -122.1586 61° Northeast 284 327 11,200 2,710 Climbing Oakland Center
Fri 03:26:42 PM 37.7875 -122.0456 70° East 337 388 13,600 2,634 Climbing Oakland Center
Fri 03:27:43 PM 37.8208 -121.9244 71° East 363 418 16,600 2,732 Climbing Oakland Center
Fri 03:28:45 PM 37.8572 -121.7975 70° East 384 442 19,200 2,537 Climbing Oakland Center
Fri 03:29:46 PM 37.8939 -121.6656 71° East 396 456 21,800 2,537 Climbing Oakland Center
Fri 03:30:48 PM 37.9306 -121.5303 71° East 406 467 24,400 2,439 Climbing Oakland Center
Fri 03:31:49 PM 37.9722 -121.3683 72° East 421 484 26,800 2,098 Climbing Oakland Center
Fri 03:32:51 PM 38.0011 -121.2167 76° East 440 506 28,700 1,790 Climbing Oakland Center
Fri 03:33:53 PM 38.0311 -121.0619 76° East 453 521 30,500 1,659 Climbing Oakland Center
Fri 03:34:54 PM 38.0614 -120.9036 76° East 462 532 32,100 1,707 Climbing Oakland Center
Fri 03:35:56 PM 38.0981 -120.7103 76° East 472 543 34,000 1,659 Climbing Oakland Center
Fri 03:36:57 PM 38.1281 -120.5461 77° East 477 549 35,500 1,463 Climbing Oakland Center
Fri 03:37:59 PM 38.1581 -120.3814 77° East 480 552 37,000 1,306 Climbing Oakland Center
Fri 03:39:01 PM 38.1889 -120.2169 77° East 480 552 38,200 1,122 Climbing Oakland Center
Fri 03:40:02 PM 38.2189 -120.0508 77° East 481 554 39,300 1,073 Climbing Oakland Center
Fri 03:41:04 PM 38.2486 -119.8853 77° East 480 552 40,400 823 Climbing Oakland Center
Fri 03:42:06 PM 38.2789 -119.7203 77° East 478 550 41,000 293 Climbing Oakland Center
Fri 03:43:07 PM 38.3139 -119.5181 78° East 487 560 41,000  Level Oakland Center
Fri 03:44:09 PM 38.3397 -119.3731 77° East 495 570 41,000  Level Oakland Center
Fri 03:45:10 PM 38.3742 -119.1667 78° East 499 574 41,000  Level Oakland Center
Fri 03:46:12 PM 38.4036 -118.9964 78° East 494 568 41,000  Level Oakland Center
Fri 03:47:13 PM 38.4331 -118.8250 78° East 496 571 41,000  Level Oakland Center
Fri 03:48:15 PM 38.4608 -118.6542 78° East 495 570 41,000  Level Oakland Center
Fri 03:49:17 PM 38.4894 -118.4806 78° East 500 575 41,000  Level Oakland Center
Fri 03:50:18 PM 38.5183 -118.3089 78° East 498 573 41,000  Level Oakland Center
Fri 03:51:20 PM 38.5461 -118.1375 78° East 496 571 41,000  Level Oakland Center
Fri 03:52:22 PM 38.5794 -117.9356 78° East 498 573 41,000  Level Oakland Center
Fri 03:53:23 PM 38.6072 -117.7608 78° East 498 573 41,000  Level Oakland Center
Fri 03:54:25 PM 38.6336 -117.5875 79° East 496 571 41,000  Level Oakland Center
Fri 03:55:26 PM 38.6619 -117.4125 78° East 498 573 41,000  Level Oakland Center
Fri 03:56:02 PM 38.6772 -117.3064 80° East 500 575 41,000  Level Salt Lake Center
Fri 03:57:03 PM 38.7103 -117.1322 76° East 500 575 41,000  Level Salt Lake Center
Fri 03:57:30 PM 38.7242 -117.0619 76° East 501 577 41,000  Level Oakland Center
Fri 03:58:31 PM 38.7578 -116.8861 76° East 504 580 41,000  Level Oakland Center
Fri 03:59:06 PM 38.7772 -116.7808 77° East 504 580 41,000  Level Salt Lake Center
Fri 04:00:08 PM 38.8089 -116.6058 77° East 503 579 41,000  Level Salt Lake Center
Fri 04:00:35 PM 38.8286 -116.5019 76° East 499 574 41,000  Level Oakland Center
Fri 04:01:36 PM 38.8606 -116.3258 77° East 504 580 41,000  Level Oakland Center
Fri 04:02:11 PM 38.8725 -116.2564 78° East 505 581 41,000  Level Salt Lake Center
Fri 04:03:12 PM 38.9111 -116.0458 77° East 503 579 41,000  Level Salt Lake Center
Fri 04:04:14 PM 38.9414 -115.8714 77° East 501 577 41,000  Level Salt Lake Center
Fri 04:05:15 PM 38.9728 -115.6936 77° East 507 583 41,000  Level Salt Lake Center
Fri 04:06:17 PM 39.0044 -115.5147 77° East 511 588 41,000  Level Salt Lake Center
Fri 04:07:18 PM 39.0378 -115.3272 77° East 512 589 41,000  Level Salt Lake Center
Fri 04:08:20 PM 39.0686 -115.1508 77° East 509 586 41,000  Level Salt Lake Center
Fri 04:09:21 PM 39.0997 -114.9714 77° East 512 589 41,000  Level Salt Lake Center
Fri 04:10:23 PM 39.1294 -114.7947 78° East 508 585 41,000  Level Salt Lake Center
Fri 04:11:24 PM 39.1600 -114.6169 77° East 507 583 41,000  Level Salt Lake Center
Fri 04:12:26 PM 39.1889 -114.4236 79° East 497 572 41,000  Level Salt Lake Center
Fri 04:13:27 PM 39.2178 -114.2639 77° East 509 586 41,000  Level Salt Lake Center
Fri 04:14:29 PM 39.2519 -114.0511 78° East 506 582 41,000  Level Salt Lake Center
Fri 04:15:31 PM 39.2794 -113.8764 78° East 499 574 41,000  Level Salt Lake Center
Fri 04:16:32 PM 39.3081 -113.7008 78° East 497 572 41,000  Level Salt Lake Center
Fri 04:17:34 PM 39.3350 -113.5264 79° East 496 571 41,000  Level Salt Lake Center
Fri 04:18:35 PM 39.3622 -113.3528 78° East 494 568 41,000  Level Salt Lake Center
Fri 04:19:37 PM 39.3886 -113.1783 79° East 494 568 41,000  Level Salt Lake Center
Fri 04:20:38 PM 39.4147 -113.0056 79° East 491 565 41,000  Level Salt Lake Center
Fri 04:21:40 PM 39.4414 -112.8297 79° East 496 571 41,000  Level Salt Lake Center
Fri 04:22:41 PM 39.4728 -112.6250 79° East 492 566 41,000  Level Salt Lake Center
Fri 04:23:43 PM 39.4978 -112.4533 79° East 489 563 41,000  Level Salt Lake Center
Fri 04:24:44 PM 39.5233 -112.2814 79° East 489 563 41,000  Level Salt Lake Center
Fri 04:25:46 PM 39.5483 -112.1100 79° East 488 562 41,000  Level Salt Lake Center
Fri 04:26:47 PM 39.5736 -111.9386 79° East 487 560 41,000  Level Salt Lake Center
Fri 04:27:50 PM 39.5972 -111.7681 80° East 486 559 41,000  Level Salt Lake Center
Fri 04:28:50 PM 39.6200 -111.5978 80° East 484 557 41,000  Level Salt Lake Center
Fri 04:29:52 PM 39.6492 -111.3939 79° East 483 556 41,000  Level Salt Lake Center
Fri 04:30:54 PM 39.6706 -111.2281 80° East 484 557 41,000  Level Salt Lake Center
Fri 04:31:55 PM 39.6931 -111.0633 80° East 484 557 41,000  Level Salt Lake Center
Fri 04:32:57 PM 39.7194 -110.8703 80° East 486 559 41,000  Level Salt Lake Center
Fri 04:33:58 PM 39.7403 -110.7042 81° East 487 560 41,000  Level Salt Lake Center
Fri 04:34:59 PM 39.7653 -110.5111 80° East 486 559 41,000  Level Salt Lake Center
Fri 04:36:01 PM 39.7867 -110.3450 80° East 488 562 41,000  Level Salt Lake Center
Fri 04:37:02 PM 39.8078 -110.1800 80° East 484 557 41,000  Level Salt Lake Center
Fri 04:38:06 PM 39.8314 -109.9867 81° East 484 557 41,000  Level Salt Lake Center
Fri 04:39:05 PM 39.8517 -109.8208 81° East 485 558 41,000  Level Salt Lake Center
Fri 04:40:07 PM 39.8753 -109.6289 81° East 482 555 41,000  Level Salt Lake Center
Fri 04:40:37 PM 39.8781 -109.6006 83° East 479 551 41,000  Level Denver Center
Fri 04:41:39 PM 39.9042 -109.3783 81° East 482 555 41,000  Level Denver Center
Fri 04:42:41 PM 39.9269 -109.1839 81° East 483 556 41,000  Level Denver Center
Fri 04:43:11 PM 39.9378 -109.1019 80° East 484 557 41,000  Level Salt Lake Center
Fri 04:44:13 PM 39.9569 -108.9344 81° East 484 557 41,000  Level Salt Lake Center
Fri 04:44:45 PM 39.9667 -108.8503 81° East 483 556 41,000  Level Denver Center
Fri 04:45:47 PM 39.9881 -108.6550 82° East 482 555 41,000  Level Denver Center
Fri 04:46:48 PM 40.0064 -108.4886 82° East 481 554 41,000  Level Denver Center
Fri 04:47:50 PM 40.0278 -108.2958 82° East 479 551 41,000  Level Denver Center
Fri 04:48:52 PM 40.0458 -108.1289 82° East 483 556 41,000  Level Denver Center
Fri 04:49:54 PM 40.0636 -107.9625 82° East 483 556 41,000  Level Denver Center
Fri 04:50:56 PM 40.1008 -107.7747 75° East 480 552 41,000  Level Denver Center
Fri 04:51:58 PM 40.1394 -107.6175 72° East 477 549 41,000  Level Denver Center
Fri 04:53:00 PM 40.1703 -107.4839 73° East 478 550 41,000  Level Denver Center
Fri 04:54:02 PM 40.2175 -107.2708 74° East 479 551 41,000  Level Denver Center
Fri 04:55:04 PM 40.2597 -107.0858 73° East 476 548 41,000  Level Denver Center
Fri 04:56:05 PM 40.2961 -106.9244 73° East 481 554 41,000  Level Denver Center
Fri 04:57:07 PM 40.3311 -106.7661 74° East 476 548 41,000  Level Denver Center
Fri 04:58:09 PM 40.3694 -106.6003 73° East 474 545 41,000  Level Denver Center
Fri 04:59:11 PM 40.4075 -106.4203 74° East 477 549 41,000  Level Denver Center
Fri 05:00:13 PM 40.4475 -106.2358 74° East 472 543 41,000  Level Denver Center
Fri 05:01:15 PM 40.4806 -106.0794 74° East 472 543 41,000  Level Denver Center
Fri 05:02:17 PM 40.5172 -105.9122 74° East 471 542 41,000  Level Denver Center
Fri 05:03:19 PM 40.5567 -105.7194 75° East 463 533 41,000  Level Denver Center
Fri 05:04:20 PM 40.5925 -105.5506 74° East 469 540 41,000  Level Denver Center
Fri 05:05:22 PM 40.6275 -105.3831 75° East 470 541 41,000  Level Denver Center
Fri 05:06:24 PM 40.6628 -105.2147 75° East 471 542 41,000  Level Denver Center
Fri 05:07:26 PM 40.6961 -105.0464 75° East 470 541 41,000  Level Denver Center
Fri 05:08:28 PM 40.7317 -104.8775 74° East 470 541 41,000  Level Denver Center
Fri 05:09:30 PM 40.7650 -104.7086 75° East 469 540 41,000  Level Denver Center
Fri 05:10:32 PM 40.7986 -104.5400 75° East 468 539 41,000  Level Denver Center
Fri 05:11:34 PM 40.8319 -104.3714 75° East 469 540 41,000  Level Denver Center
Fri 05:12:36 PM 40.8711 -104.1753 75° East 468 539 41,000  Level Denver Center
Fri 05:13:38 PM 40.9036 -104.0078 76° East 467 537 41,000  Level Denver Center
Fri 05:14:40 PM 40.9356 -103.8400 76° East 465 535 41,000  Level Denver Center
Fri 05:15:42 PM 40.9683 -103.6717 75° East 466 536 41,000  Level Denver Center
Fri 05:16:43 PM 40.9986 -103.5053 76° East 469 540 41,000  Level Denver Center
Fri 05:17:45 PM 41.0344 -103.3167 76° East 473 544 41,000  Level Denver Center
Fri 05:18:47 PM 41.0644 -103.1569 76° East 470 541 41,000  Level Denver Center
Fri 05:19:49 PM 41.0978 -102.9653 77° East 474 545 41,000  Level Denver Center
Fri 05:20:52 PM 41.1103 -102.7986 84° East 478 550 41,000  Level Denver Center
Fri 05:22:05 PM 41.1236 -102.6325 84° East 475 547 41,000  Level Denver Center
Fri 05:23:07 PM 41.1406 -102.4122 84° East 471 542 41,000  Level Denver Center
Fri 05:24:09 PM 41.1556 -102.2200 84° East 469 540 41,000  Level Denver Center
Fri 05:25:11 PM 41.1675 -102.0542 84° East 470 541 41,000  Level Denver Center
Fri 05:26:13 PM 41.1792 -101.8881 85° East 474 545 41,000  Level Denver Center
Fri 05:27:15 PM 41.1931 -101.6928 85° East 475 547 41,000  Level Denver Center
Fri 05:28:16 PM 41.2019 -101.5536 85° East 475 547 41,000  Level Denver Center
Fri 05:29:18 PM 41.2181 -101.3317 84° East 472 543 41,000  Level Denver Center
Fri 05:30:32 PM 41.2286 -101.1644 85° East 472 543 41,000  Level Denver Center
Fri 05:31:47 PM 41.2450 -100.9125 85° East 475 547 41,000  Level Denver Center
Fri 05:32:49 PM 41.2567 -100.7172 85° East 473 544 41,000  Level Denver Center
Fri 05:33:51 PM 41.2669 -100.5503 85° East 471 542 41,000  Level Denver Center
Fri 05:35:05 PM 41.2767 -100.3831 86° East 471 542 41,000  Level Denver Center
Fri 05:36:08 PM 41.2908 -100.1603 85° East 472 543 41,000  Level Denver Center
Fri 05:37:21 PM 41.3006 -99.9658 86° East 472 543 41,000  Level Denver Center
Fri 05:38:24 PM 41.3108 -99.7708 86° East 473 544 41,000  Level Denver Center
Fri 05:39:26 PM 41.3206 -99.5783 86° East 469 540 41,000  Level Denver Center
Fri 05:40:28 PM 41.3281 -99.4239 86° East 469 540 41,000  Level Denver Center
Fri 05:41:30 PM 41.3386 -99.2167 86° East 467 537 41,000  Level Denver Center
Fri 05:42:32 PM 41.3469 -99.0419 86° East 469 540 41,000  Level Denver Center
Fri 05:43:34 PM 41.3547 -98.8664 87° East 468 539 41,000  Level Denver Center
Fri 05:44:03 PM 41.3572 -98.7822 88° East 469 540 41,000  Level Minneapolis Center
Fri 05:45:04 PM 41.3636 -98.6436 86° East 469 540 41,000  Level Minneapolis Center
Fri 05:46:18 PM 41.3722 -98.4439 87° East 470 541 41,000  Level Minneapolis Center
Fri 05:47:32 PM 41.3947 -98.2361 82° East 470 541 41,000  Level Minneapolis Center
Fri 05:48:34 PM 41.4319 -98.0253 77° East 469 540 41,000  Level Minneapolis Center
Fri 05:49:36 PM 41.4597 -97.8558 78° East 469 540 41,000  Level Minneapolis Center
Fri 05:50:38 PM 41.4878 -97.6858 78° East 469 540 41,000  Level Minneapolis Center
Fri 05:51:39 PM 41.5211 -97.4817 78° East 469 540 41,000  Level Minneapolis Center
Fri 05:52:41 PM 41.5442 -97.3447 77° East 472 543 41,000  Level Minneapolis Center
Fri 05:53:43 PM 41.5758 -97.1400 78° East 470 541 41,000  Level Minneapolis Center
Fri 05:54:45 PM 41.6022 -96.9686 78° East 471 542 41,000  Level Minneapolis Center
Fri 05:55:46 PM 41.6292 -96.7975 78° East 471 542 41,000  Level Minneapolis Center
Fri 05:56:48 PM 41.6556 -96.6272 78° East 467 537 41,000  Level Minneapolis Center
Fri 05:57:50 PM 41.6828 -96.4561 78° East 467 537 41,000  Level Minneapolis Center
Fri 05:58:51 PM 41.7083 -96.2853 79° East 465 535 41,000  Level Minneapolis Center
Fri 05:59:53 PM 41.7342 -96.1136 79° East 466 536 41,000  Level Minneapolis Center
Fri 06:00:55 PM 41.7631 -95.9075 79° East 465 535 41,000  Level Minneapolis Center
Fri 06:02:09 PM 41.7883 -95.7361 79° East 466 536 41,000  Level Minneapolis Center
Fri 06:03:11 PM 41.8186 -95.5297 79° East 470 541 41,000  Level Minneapolis Center
Fri 06:04:12 PM 41.8422 -95.3569 80° East 471 542 41,000  Level Minneapolis Center
Fri 06:05:14 PM 41.8667 -95.1853 79° East 468 539 41,000  Level Minneapolis Center
Fri 06:06:15 PM 41.8856 -95.0483 79° East 467 537 41,000  Level Minneapolis Center
Fri 06:07:18 PM 41.9128 -94.8436 80° East 466 536 41,000  Level Minneapolis Center
Fri 06:08:19 PM 41.9356 -94.6731 80° East 465 535 41,000  Level Minneapolis Center
Fri 06:09:21 PM 41.9644 -94.4689 79° East 465 535 41,000  Level Minneapolis Center
Fri 06:10:23 PM 41.9875 -94.2978 80° East 465 535 41,000  Level Minneapolis Center
Fri 06:11:25 PM 42.0097 -94.1269 80° East 464 534 41,000  Level Minneapolis Center
Fri 06:12:26 PM 42.0311 -93.9525 81° East 471 542 41,000  Level Minneapolis Center
Fri 06:13:28 PM 42.0528 -93.7942 80° East 467 537 41,000  Level Minneapolis Center
Fri 06:14:30 PM 42.0778 -93.5894 81° East 466 536 41,000  Level Minneapolis Center
Fri 06:15:32 PM 42.0994 -93.4186 80° East 467 537 41,000  Level Minneapolis Center
Fri 06:16:34 PM 42.1208 -93.2483 80° East 466 536 41,000  Level Minneapolis Center
Fri 06:17:35 PM 42.1411 -93.0747 81° East 471 542 41,000  Level Minneapolis Center
Fri 06:18:37 PM 42.1619 -92.9017 81° East 472 543 41,000  Level Minneapolis Center
Fri 06:19:39 PM 42.1833 -92.7294 80° East 472 543 41,000  Level Minneapolis Center
Fri 06:20:53 PM 42.2081 -92.5217 81° East 472 543 41,000  Level Minneapolis Center
Fri 06:21:55 PM 42.2317 -92.3131 81° East 472 543 41,000  Level Minneapolis Center
Fri 06:22:57 PM 42.2503 -92.1403 82° East 473 544 41,000  Level Minneapolis Center
Fri 06:23:55 PM 42.2703 -91.9664 81° East 471 542 41,000  Level Chicago Center
Fri 06:24:57 PM 42.2886 -91.7914 82° East 476 548 41,000  Level Chicago Center
Fri 06:25:59 PM 42.3083 -91.6189 81° East 474 545 41,000  Level Chicago Center
Fri 06:27:01 PM 42.3294 -91.4119 82° East 472 543 41,000  Level Chicago Center
Fri 06:28:03 PM 42.3472 -91.2394 82° East 473 544 41,000  Level Chicago Center
Fri 06:29:05 PM 42.3658 -91.0650 82° East 475 547 41,000  Level Chicago Center
Fri 06:30:07 PM 42.3822 -90.8897 83° East 477 549 41,000 339 Level Chicago Center
Fri 06:31:09 PM 42.3994 -90.6819 84° East 468 539 41,700 823 Climbing Chicago Center
Fri 06:32:11 PM 42.3894 -90.5133 95° East 456 525 42,700 871 Climbing Chicago Center
Fri 06:33:13 PM 42.3808 -90.3453 94° East 453 521 43,500 726 Climbing Chicago Center
Fri 06:34:15 PM 42.3719 -90.1794 94° East 448 516 44,200 484 Climbing Chicago Center
Fri 06:35:17 PM 42.3619 -90.0119 95° East 451 519 44,500 339 Climbing Chicago Center
Fri 06:36:19 PM 42.3500 -89.8092 94° East 457 526 44,900 242 Climbing Chicago Center
Fri 06:37:21 PM 42.3394 -89.6358 95° East 462 532 45,000 48 Climbing Chicago Center
Fri 06:38:23 PM 42.3283 -89.4600 95° East 467 537 45,000  Level Chicago Center
Fri 06:39:25 PM 42.3167 -89.2833 95° East 472 543 45,000  Level Chicago Center
Fri 06:40:27 PM 42.3039 -89.0800 95° East 468 539 45,000  Level Chicago Center
Fri 06:41:29 PM 42.2925 -88.9053 95° East 468 539 45,000  Level Chicago Center
Fri 06:42:31 PM 42.2806 -88.7339 95° East 469 540 45,000  Level Chicago Center
Fri 06:43:33 PM 42.2681 -88.5589 95° East 468 539 45,000  Level Chicago Center
Fri 06:44:35 PM 42.2550 -88.3864 96° East 464 534 45,000  Level Chicago Center
Fri 06:45:37 PM 42.2419 -88.2108 96° East 468 539 45,000  Level Chicago Center
Fri 06:46:39 PM 42.2494 -87.9989 87° East 468 539 45,000  Level Chicago Center
Fri 06:47:41 PM 42.2547 -87.8208 88° East 473 544 45,000  Level Chicago Center
Fri 06:48:43 PM 42.2597 -87.6433 88° East 473 544 45,000  Level Chicago Center
Fri 06:49:45 PM 42.2650 -87.4653 88° East 474 545 45,000  Level Chicago Center
Fri 06:50:47 PM 42.2694 -87.2881 88° East 474 545 45,000  Level Chicago Center
Fri 06:51:49 PM 42.2739 -87.1092 88° East 477 549 45,000  Level Chicago Center
Fri 06:52:50 PM 42.2772 -86.9322 88° East 475 547 45,000  Level Chicago Center
Fri 06:53:52 PM 42.2831 -86.7183 88° East 475 547 45,000  Level Chicago Center
Fri 06:54:54 PM 42.2861 -86.5614 88° East 476 548 45,000  Level Chicago Center
Fri 06:55:56 PM 42.2886 -86.3828 89° East 477 549 45,000  Level Chicago Center
Fri 06:56:58 PM 42.2922 -86.1817 89° East 476 548 45,000  Level Chicago Center
Fri 06:58:00 PM 42.2942 -86.0053 89° East 474 545 45,000  Level Chicago Center
Fri 06:59:02 PM 42.2969 -85.8281 89° East 475 547 45,000  Level Chicago Center
Fri 07:00:04 PM 42.3000 -85.6142 89° East 478 550 45,000  Level Chicago Center
Fri 07:01:06 PM 42.3022 -85.4353 89° East 480 552 45,000  Level Chicago Center
Fri 07:01:48 PM 42.3069 -85.3064 87° East 466 536 45,000  Level Cleveland Center
Fri 07:02:47 PM 42.3078 -85.1294 90° East 466 536 45,000  Level Cleveland Center
Fri 07:03:48 PM 42.3083 -84.9497 90° East 466 536 45,000  Level Cleveland Center
Fri 07:04:48 PM 42.3108 -84.7728 89° East 466 536 45,000  Level Cleveland Center
Fri 07:05:48 PM 42.3047 -84.5956 93° East 472 543 45,000  Level Cleveland Center
Fri 07:06:48 PM 42.3044 -84.4214 90° East 472 543 45,000  Level Cleveland Center
Fri 07:07:48 PM 42.3039 -84.2472 90° East 466 536 45,000  Level Cleveland Center
Fri 07:08:48 PM 42.3053 -84.0703 89° East 466 536 45,000  Level Cleveland Center
Fri 07:09:48 PM 42.3061 -83.8964 90° East 461 531 45,000  Level Cleveland Center
Fri 07:10:48 PM 42.3047 -83.7250 91° East 461 531 45,000  Level Cleveland Center
Fri 07:11:48 PM 42.3028 -83.5619 91° East 461 531 45,000  Level Cleveland Center
Fri 07:12:47 PM 42.3031 -83.3878 90° East 462 532 45,000  Level Cleveland Center
Fri 07:13:48 PM 42.3011 -83.2053 91° East 470 541 45,000  Level Cleveland Center
Fri 07:14:48 PM 42.2986 -83.0339 91° East 470 541 45,000  Level Cleveland Center
Fri 07:15:48 PM 42.2961 -82.8542 91° East 470 541 45,000  Level Cleveland Center
Fri 07:16:48 PM 42.2953 -82.6800 90° East 470 541 45,000  Level Cleveland Center
Fri 07:17:48 PM 42.2900 -82.5058 92° East 465 535 45,000  Level Cleveland Center
Fri 07:18:48 PM 42.2864 -82.3317 92° East 465 535 45,000  Level Cleveland Center
Fri 07:19:48 PM 42.2828 -82.1547 92° East 460 529 45,000  Level Cleveland Center
Fri 07:20:48 PM 42.2831 -81.9639 90° East 460 529 45,000  Level Cleveland Center
Fri 07:21:48 PM 42.2789 -81.7900 92° East 469 540 45,000  Level Cleveland Center
Fri 07:22:48 PM 42.2742 -81.6269 92° East 469 540 45,000  Level Cleveland Center
Fri 07:23:48 PM 42.2714 -81.4531 91° East 464 534 45,000  Level Cleveland Center
Fri 07:24:48 PM 42.2642 -81.2761 93° East 464 534 45,000  Level Cleveland Center
Fri 07:25:48 PM 42.2611 -81.1022 91° East 464 534 45,000  Level Cleveland Center
Fri 07:26:48 PM 42.2556 -80.9283 92° East 464 534 45,000  Level Cleveland Center
Fri 07:27:47 PM 42.2308 -80.7347 100° East 464 534 45,000  Level Cleveland Center
Fri 07:28:48 PM 42.2081 -80.5664 100° East 464 534 45,000  Level Cleveland Center
Fri 07:29:48 PM 42.1828 -80.3928 101° East 469 540 45,000  Level Cleveland Center
Fri 07:30:48 PM 42.1594 -80.2219 100° East 464 534 45,000  Level Cleveland Center
Fri 07:31:48 PM 42.1339 -80.0511 101° East 464 534 45,000  Level Cleveland Center
Fri 07:32:48 PM 42.1119 -79.8806 100° East 464 534 45,000  Level Cleveland Center
Fri 07:33:48 PM 42.0858 -79.7075 101° East 464 534 45,000  Level Cleveland Center
Fri 07:34:48 PM 42.0594 -79.5372 102° East 469 540 45,000  Level Cleveland Center
Fri 07:35:48 PM 42.0350 -79.3669 101° East 469 540 45,000  Level Cleveland Center
Fri 07:36:48 PM 42.0078 -79.1917 102° East 469 540 45,000  Level Cleveland Center
Fri 07:37:48 PM 41.9828 -79.0217 101° East 469 540 45,000  Level Cleveland Center
Fri 07:38:48 PM 41.9553 -78.8464 102° East 469 540 45,000  Level Cleveland Center
Fri 07:39:47 PM 41.9275 -78.6742 102° East 469 540 45,000 -790 Level Cleveland Center
Fri 07:41:35 PM 41.8800 -78.3736 102° East 480 552 42,800 -1,365 Descending New York Center
Fri 07:42:34 PM 41.8533 -78.2061 102° East 474 545 41,200 -1,650 Descending New York Center
Fri 07:43:35 PM 41.8278 -78.0447 102° East 462 532 39,500 -1,636 Descending New York Center
Fri 07:44:35 PM 41.8022 -77.8831 102° East 455 524 37,900 -1,641 Descending New York Center
Fri 07:45:32 PM 41.7706 -77.7100 104° East 461 531 36,300 -1,475 Descending New York Center
Fri 07:46:33 PM 41.7431 -77.5375 102° East 466 536 35,000 -639 Descending New York Center
Fri 07:47:34 PM 41.7150 -77.3708 103° East 466 536 35,000  Level New York Center
Fri 07:48:34 PM 41.6869 -77.2011 102° East 466 536 35,000  Level New York Center
Fri 07:49:35 PM 41.6475 -77.0419 108° East 473 544 35,000 -50 Level New York Center
Fri 07:50:33 PM 41.6019 -76.8739 110° East 478 550 34,900 -1,333 Descending New York Center
Fri 07:51:32 PM 41.5547 -76.6950 109° East 478 550 32,400 -2,430 Descending New York Center
Fri 07:52:34 PM 41.5086 -76.5331 111° Southeast 473 544 30,000 -2,341 Descending New York Center
Fri 07:53:35 PM 41.4644 -76.3658 109° East 466 536 27,600 -2,150 Descending New York Center
Fri 07:54:34 PM 41.4258 -76.2133 109° East 466 536 25,700 -2,118 Descending New York Center
Fri 07:55:34 PM 41.3786 -76.0628 113° Southeast 463 533 23,400 -2,269 Descending New York Center
Fri 07:56:33 PM 41.3369 -75.9186 111° Southeast 440 506 21,200 -2,100 Descending New York Center
Fri 07:57:34 PM 41.2972 -75.7775 110° East 422 486 19,200 -1,721 Descending New York Center
Fri 07:58:35 PM 41.2531 -75.6336 112° Southeast 422 486 17,700 -1,866 Descending New York Center
Fri 07:59:33 PM 41.2125 -75.5039 113° Southeast 395 455 15,500 -2,319 Descending New York Center
Fri 08:00:34 PM 41.1697 -75.3739 114° Southeast 377 434 13,100 -2,115 Descending New York Center
Fri 08:01:35 PM 41.1306 -75.2583 114° Southeast 347 399 11,200 -1,785 Descending New York Center
Fri 08:02:35 PM 41.1006 -75.1711 115° Southeast 309 356 9,500 -1,692 Descending New York Center
Fri 08:03:32 PM 41.0683 -75.0781 115° Southeast 278 320 7,900 -1,678 Descending New York Center
Fri 08:04:33 PM 41.0383 -74.9881 114° Southeast 249 287 6,200 -1,122 Descending New York Center
Fri 08:05:35 PM 41.0333 -74.8944 94° East 239 275 5,600 -1,033 Descending New York Center
Fri 08:06:35 PM 41.0303 -74.8006 92° East 256 295 4,100 -814 Descending New York Center
Fri 08:07:33 PM 41.0289 -74.7208 91° East 251 289 4,000 -101 Descending New York Center
Fri 08:08:34 PM 41.0300 -74.6219 89° East 251 289 3,900 -496 Descending New York Center
Fri 08:09:34 PM 41.0306 -74.5422 89° East 246 283 3,000 -450 Descending New York Center
Fri 08:10:34 PM 41.0297 -74.4403 91° East 246 283 3,000  Level New York Center
Fri 08:11:29 PM 41.0333 -74.3500 87° East 244 281 3,000  Level New York TRACON
Fri 08:12:29 PM 41.0333 -74.2667 90° East 257 296 3,000 -500 Level New York TRACON
Fri 08:13:29 PM 41.0333 -74.1667 90° East 248 285 2,000 -526 Descending New York TRACON
Fri 08:14:23 PM 41.0167 -74.0833 105° East 254 292 2,000 -105 Level New York TRACON
Fri 08:15:23 PM 40.9667 -74.0500 153° Southeast 210 242 1,800 -381 Descending New York TRACON
Fri 08:16:29 PM 40.9167 -74.0500 180° South 163 188 1,200 -619 Descending New York TRACON
Fri 08:17:29 PM 40.8833 -74.0500 180° South 116 133 500 -700 Descending New York TRACON
Fri 08:19:00 PM 40.8500 -74.0500 180° South  Level FlightAware Approximate
Fri 08:26:00 PM 40.8501 -74.0608 180° South  Level Estimated
Fri 08:27:00 PM 40.8501 -74.0608 180° South  Level Estimated

Login

Don't have an account? Register now (free) for customized features, flight alerts, and more!